Time;durP1;ratioP1;P1;durP2;ratioP2;P2;SDS_P1;SDS_P2;PMS_P1;PMS_P2;Temp;Humidity;BMP_temperature;BMP_pressure;BME280_temperature;BME280_humidity;BME280_pressure;Samples;Min_cycle;Max_cycle;Signal;HPM_P1;HPM_P2
2022/10/13 00:02:22;;;;;;;20.47;10.73;;;16.50;81.50;;;;;;5079020;28;20254;-81
2022/10/13 00:04:50;;;;;;;17.47;10.47;;;16.50;81.50;;;;;;5083860;28;20218;-81
2022/10/13 00:07:19;;;;;;;20.43;11.00;;;16.50;81.60;;;;;;5067598;28;20263;-81
2022/10/13 00:09:47;;;;;;;16.10;10.63;;;16.40;82.20;;;;;;5090408;28;20210;-82
2022/10/13 00:12:17;;;;;;;15.33;10.30;;;16.40;81.70;;;;;;5066604;28;20199;-82
2022/10/13 00:14:47;;;;;;;14.87;11.23;;;16.40;81.80;;;;;;5069195;28;20703;-82
2022/10/13 00:17:14;;;;;;;14.53;9.90;;;16.30;81.80;;;;;;5078375;28;20225;-81
2022/10/13 00:19:43;;;;;;;12.97;10.03;;;16.30;81.80;;;;;;5064273;28;20210;-81
2022/10/13 00:22:12;;;;;;;13.40;10.43;;;16.30;81.80;;;;;;5045732;28;20213;-81
2022/10/13 00:24:51;;;;;;;18.47;11.23;;;16.20;81.70;;;;;;5047531;28;20202;-81
2022/10/13 00:27:19;;;;;;;14.23;9.80;;;16.20;81.90;;;;;;5074427;28;20212;-81
2022/10/13 00:29:46;;;;;;;16.17;10.20;;;16.20;82.00;;;;;;5061186;28;20231;-81
2022/10/13 00:32:13;;;;;;;12.33;10.33;;;16.20;82.00;;;;;;5052517;28;20194;-82
2022/10/13 00:34:44;;;;;;;24.70;10.80;;;16.20;82.00;;;;;;5064559;28;20202;-81
2022/10/13 00:37:14;;;;;;;15.13;10.17;;;16.10;82.70;;;;;;5080483;28;20221;-81
2022/10/13 00:39:44;;;;;;;21.93;10.53;;;16.10;82.10;;;;;;5061379;28;20216;-82
2022/10/13 00:42:12;;;;;;;18.07;11.37;;;16.10;82.70;;;;;;5071326;28;20208;-81
2022/10/13 00:44:58;;;;;;;21.37;10.83;;;16.10;82.00;;;;;;5061809;28;20206;-81
2022/10/13 00:47:29;;;;;;;18.47;10.90;;;16.00;82.00;;;;;;5071625;28;20235;-81
2022/10/13 00:49:58;;;;;;;23.90;11.57;;;16.00;82.10;;;;;;5065811;28;20202;-81
2022/10/13 00:52:26;;;;;;;17.67;11.03;;;16.00;82.20;;;;;;5053341;28;20198;-81
2022/10/13 00:54:55;;;;;;;21.97;11.30;;;16.00;82.30;;;;;;5046183;28;20202;-81
2022/10/13 00:57:24;;;;;;;20.60;11.80;;;15.90;82.40;;;;;;5063545;28;20212;-82
2022/10/13 00:59:54;;;;;;;14.43;10.80;;;15.90;82.50;;;;;;5083202;28;20208;-81
2022/10/13 01:02:23;;;;;;;26.87;12.07;;;15.90;83.20;;;;;;5065742;28;20305;-81
2022/10/13 01:04:56;;;;;;;21.63;13.20;;;15.90;82.60;;;;;;5058227;28;20207;-82
2022/10/13 01:07:24;;;;;;;20.57;12.50;;;15.80;82.60;;;;;;5050719;28;20217;-81
2022/10/13 01:09:54;;;;;;;18.03;11.27;;;15.80;82.70;;;;;;5060478;28;20285;-81
2022/10/13 01:12:44;;;;;;;19.50;12.23;;;15.80;82.80;;;;;;5057848;28;20331;-81
2022/10/13 01:15:23;;;;;;;18.83;12.53;;;15.70;83.00;;;;;;5055706;28;20204;-81
2022/10/13 01:17:52;;;;;;;14.20;11.20;;;15.70;83.10;;;;;;5064477;28;20225;-81
2022/10/13 01:20:38;;;;;;;14.63;11.53;;;15.70;83.20;;;;;;5054246;28;20194;-81
2022/10/13 01:23:17;;;;;;;19.40;11.17;;;15.60;83.20;;;;;;5054589;28;20218;-81
2022/10/13 01:26:23;;;;;;;16.77;9.87;;;15.60;83.20;;;;;;5058181;28;20206;-81
2022/10/13 01:29:21;;;;;;;12.80;9.50;;;15.60;82.70;;;;;;5057541;28;20211;-81
2022/10/13 01:32:15;;;;;;;15.83;10.80;;;15.50;82.40;;;;;;5053268;28;20210;-81
2022/10/13 01:35:06;;;;;;;23.57;13.90;;;15.40;82.30;;;;;;5056182;28;20553;-81
2022/10/13 01:37:45;;;;;;;26.93;13.03;;;15.40;82.70;;;;;;5054633;28;20217;-81
2022/10/13 01:40:25;;;;;;;17.20;12.20;;;15.40;83.00;;;;;;5059526;28;20229;-82
2022/10/13 01:43:36;;;;;;;22.30;11.50;;;15.30;83.30;;;;;;5044696;28;20282;-81
2022/10/13 01:46:22;;;;;;;16.60;11.93;;;15.20;83.70;;;;;;4946886;29;20218;-82
2022/10/13 01:48:54;;;;;;;21.63;12.23;;;15.20;83.80;;;;;;4961999;29;20212;-81
2022/10/13 01:51:24;;;;;;;17.63;11.83;;;15.20;83.90;;;;;;5029354;28;20330;-81
2022/10/13 01:53:52;;;;;;;14.73;11.93;;;15.20;84.10;;;;;;5041974;28;20671;-81
2022/10/13 01:56:19;;;;;;;21.60;13.17;;;15.20;84.20;;;;;;5042798;28;20266;-81
2022/10/13 01:58:50;;;;;;;21.47;12.77;;;15.10;84.30;;;;;;5047618;28;20208;-81
2022/10/13 02:01:24;;;;;;;18.33;11.77;;;15.10;84.40;;;;;;5054017;28;20236;-81
2022/10/13 02:04:13;;;;;;;18.70;12.43;;;15.10;84.50;;;;;;5058713;28;20218;-81
2022/10/13 02:07:14;;;;;;;16.83;11.87;;;15.10;84.60;;;;;;5055451;28;20240;-81
2022/10/13 02:10:16;;;;;;;17.77;12.40;;;15.10;84.90;;;;;;5038699;28;20694;-81
2022/10/13 02:12:59;;;;;;;14.77;12.47;;;15.10;85.00;;;;;;5051707;28;20206;-82
2022/10/13 02:15:36;;;;;;;16.30;12.80;;;15.10;85.10;;;;;;5054344;28;20220;-80
2022/10/13 02:18:09;;;;;;;20.07;12.50;;;15.10;85.10;;;;;;5058052;28;20254;-81
2022/10/13 02:20:39;;;;;;;22.00;13.20;;;15.10;85.10;;;;;;5059774;28;20218;-81
2022/10/13 02:23:11;;;;;;;23.27;13.37;;;15.00;85.20;;;;;;5042018;28;20202;-81
2022/10/13 02:25:40;;;;;;;17.50;12.23;;;15.00;85.20;;;;;;5048278;28;20597;-81
2022/10/13 02:28:11;;;;;;;18.00;12.73;;;15.00;85.20;;;;;;5056335;28;20221;-81
2022/10/13 02:30:43;;;;;;;21.27;12.53;;;15.00;85.30;;;;;;5053426;28;20221;-81
2022/10/13 02:33:11;;;;;;;23.07;14.27;;;15.00;85.30;;;;;;5037763;28;20225;-80
2022/10/13 02:35:40;;;;;;;16.47;12.07;;;14.90;85.30;;;;;;5047872;28;20213;-81
2022/10/13 02:38:09;;;;;;;20.30;13.00;;;15.00;85.40;;;;;;5060552;28;20212;-81
2022/10/13 02:40:37;;;;;;;23.13;13.63;;;14.90;85.20;;;;;;5055390;28;20208;-82
2022/10/13 02:43:04;;;;;;;16.73;12.67;;;14.90;85.20;;;;;;5031072;28;20201;-81
2022/10/13 02:45:33;;;;;;;18.03;13.73;;;14.90;85.30;;;;;;5056304;28;20213;-81
2022/10/13 02:48:01;;;;;;;18.77;13.93;;;14.90;85.40;;;;;;5061692;28;20220;-81
2022/10/13 02:50:29;;;;;;;17.77;13.30;;;14.90;85.50;;;;;;5063860;28;20740;-81
2022/10/13 02:52:57;;;;;;;21.03;13.83;;;14.80;85.50;;;;;;5058781;28;20668;-82
2022/10/13 02:55:26;;;;;;;19.37;14.83;;;14.80;85.50;;;;;;5054381;28;20218;-81
2022/10/13 02:57:56;;;;;;;22.67;14.10;;;14.80;85.60;;;;;;5065083;28;20212;-82
2022/10/13 03:00:24;;;;;;;19.60;14.10;;;14.80;85.70;;;;;;5055725;28;20197;-82
2022/10/13 03:02:53;;;;;;;16.03;13.87;;;14.80;85.80;;;;;;5043468;28;20195;-82
2022/10/13 03:05:21;;;;;;;19.07;14.23;;;14.80;85.80;;;;;;5053309;28;20218;-83
2022/10/13 03:07:51;;;;;;;18.80;13.13;;;14.80;85.80;;;;;;5045813;28;20213;-81
2022/10/13 03:10:19;;;;;;;24.93;14.77;;;14.80;85.80;;;;;;5044929;28;20266;-82
2022/10/13 03:12:49;;;;;;;18.70;13.37;;;14.80;85.70;;;;;;5050152;28;20269;-81
2022/10/13 03:15:17;;;;;;;20.20;13.43;;;14.80;85.80;;;;;;5029979;28;20568;-81
2022/10/13 03:17:50;;;;;;;20.10;14.53;;;14.70;85.70;;;;;;5036586;28;20220;-82
2022/10/13 03:20:18;;;;;;;20.90;14.87;;;14.70;85.80;;;;;;5035772;28;20207;-81
2022/10/13 03:22:46;;;;;;;20.57;14.73;;;14.70;85.70;;;;;;5040771;28;20230;-81
2022/10/13 03:25:16;;;;;;;26.20;15.20;;;14.60;85.70;;;;;;5044124;28;20214;-82
2022/10/13 03:27:46;;;;;;;19.67;13.97;;;14.60;85.70;;;;;;5047502;28;20249;-82
2022/10/13 03:30:13;;;;;;;27.13;15.47;;;14.60;85.70;;;;;;5050311;28;20604;-81
2022/10/13 03:32:41;;;;;;;21.97;14.97;;;14.50;85.50;;;;;;5058097;28;20588;-81
2022/10/13 03:35:11;;;;;;;21.17;15.27;;;14.50;85.60;;;;;;5029410;28;20226;-82
2022/10/13 03:37:38;;;;;;;19.80;15.77;;;14.50;85.90;;;;;;5055505;28;20202;-81
2022/10/13 03:40:08;;;;;;;22.70;15.73;;;14.50;86.10;;;;;;5031324;28;20202;-81
2022/10/13 03:42:38;;;;;;;26.50;16.47;;;14.50;86.40;;;;;;5049612;28;20202;-82
2022/10/13 03:45:09;;;;;;;19.67;15.33;;;14.50;86.60;;;;;;5054920;28;20260;-80
2022/10/13 03:47:36;;;;;;;21.43;15.67;;;14.50;86.60;;;;;;5037842;28;20245;-81
2022/10/13 03:50:04;;;;;;;26.63;16.53;;;14.50;86.80;;;;;;5051494;28;20260;-81
2022/10/13 03:52:34;;;;;;;25.13;15.57;;;14.50;86.80;;;;;;5049994;28;20303;-81
2022/10/13 03:55:02;;;;;;;21.83;15.80;;;14.50;86.90;;;;;;5063404;28;20215;-82
2022/10/13 03:57:30;;;;;;;31.77;17.50;;;14.50;86.90;;;;;;5031693;28;20222;-82
2022/10/13 03:59:57;;;;;;;20.80;15.73;;;14.50;87.00;;;;;;5033711;28;20202;-81
2022/10/13 04:02:26;;;;;;;27.63;15.93;;;14.50;87.10;;;;;;5042764;28;20249;-82
2022/10/13 04:04:54;;;;;;;27.47;15.17;;;14.50;87.20;;;;;;5057090;28;20225;-82
2022/10/13 04:07:23;;;;;;;25.97;14.77;;;14.50;87.20;;;;;;5053927;28;20205;-81
2022/10/13 04:09:50;;;;;;;27.07;14.70;;;14.50;87.10;;;;;;5057124;28;20207;-81
2022/10/13 04:12:19;;;;;;;24.17;15.60;;;14.50;86.80;;;;;;5061248;28;20206;-82
2022/10/13 04:14:49;;;;;;;19.03;14.13;;;14.50;86.80;;;;;;5050899;28;20234;-82
2022/10/13 04:17:16;;;;;;;23.30;16.20;;;14.50;86.70;;;;;;5057726;28;20213;-82
2022/10/13 04:19:43;;;;;;;24.20;13.97;;;14.50;86.50;;;;;;5066382;28;20206;-82
2022/10/13 04:22:14;;;;;;;28.03;15.50;;;14.40;86.50;;;;;;5063220;28;20202;-80
2022/10/13 04:24:45;;;;;;;22.17;14.60;;;14.40;86.50;;;;;;5048531;28;20590;-80
2022/10/13 04:27:15;;;;;;;21.87;15.07;;;14.40;86.60;;;;;;5037279;28;20205;-80
2022/10/13 04:29:43;;;;;;;25.93;16.20;;;14.40;86.70;;;;;;5058504;28;20238;-80
2022/10/13 04:32:12;;;;;;;27.77;16.03;;;14.30;86.70;;;;;;5042999;28;20218;-80
2022/10/13 04:34:42;;;;;;;22.93;15.57;;;14.30;86.80;;;;;;5058653;28;20267;-81
2022/10/13 04:37:13;;;;;;;27.37;16.30;;;14.30;86.80;;;;;;5059124;28;20202;-80
2022/10/13 04:39:40;;;;;;;22.47;14.37;;;14.20;86.70;;;;;;5057630;28;20204;-80
2022/10/13 04:42:09;;;;;;;22.70;14.97;;;14.20;86.80;;;;;;5061306;28;20206;-80
2022/10/13 04:44:37;;;;;;;22.17;15.27;;;14.10;86.80;;;;;;5060971;28;20209;-80
2022/10/13 04:47:11;;;;;;;27.30;16.13;;;14.10;86.80;;;;;;5066202;28;20695;-80
2022/10/13 04:49:41;;;;;;;31.57;18.13;;;14.10;86.70;;;;;;5063273;28;20543;-80
2022/10/13 04:52:09;;;;;;;27.97;16.23;;;14.00;86.70;;;;;;5062788;28;20235;-80
2022/10/13 04:54:39;;;;;;;23.67;16.37;;;14.00;86.70;;;;;;5051029;28;20224;-80
2022/10/13 04:57:06;;;;;;;23.23;16.47;;;14.00;86.70;;;;;;5050880;28;20208;-81
2022/10/13 04:59:33;;;;;;;21.07;16.40;;;14.00;86.90;;;;;;5048813;28;20210;-81
2022/10/13 05:02:02;;;;;;;29.87;18.30;;;14.00;87.00;;;;;;5073926;28;20300;-81
2022/10/13 05:04:30;;;;;;;24.90;18.63;;;14.00;87.20;;;;;;5044117;28;20216;-81
2022/10/13 05:06:58;;;;;;;25.63;16.70;;;13.90;87.20;;;;;;5047467;28;20574;-80
2022/10/13 05:09:44;;;;;;;22.47;16.93;;;14.00;87.40;;;;;;5074231;28;20218;-80
2022/10/13 05:12:12;;;;;;;27.00;17.23;;;14.00;87.40;;;;;;5055870;28;20221;-81
2022/10/13 05:14:41;;;;;;;27.03;18.33;;;13.90;87.40;;;;;;5064399;28;20247;-81
2022/10/13 05:17:15;;;;;;;21.80;16.60;;;13.90;87.30;;;;;;5086442;28;20193;-81
2022/10/13 05:19:43;;;;;;;22.67;15.97;;;13.90;87.30;;;;;;5063646;28;20197;-81
2022/10/13 05:22:11;;;;;;;30.83;16.70;;;13.90;87.40;;;;;;5079844;28;20233;-81
2022/10/13 05:24:42;;;;;;;25.50;17.70;;;13.80;87.30;;;;;;5070299;28;20277;-81
2022/10/13 05:27:11;;;;;;;29.33;18.60;;;13.80;87.50;;;;;;5073351;28;20231;-81
2022/10/13 05:29:42;;;;;;;31.20;19.00;;;13.80;87.60;;;;;;5081139;28;20220;-80
2022/10/13 05:32:10;;;;;;;28.43;18.20;;;13.80;87.80;;;;;;5070140;28;20277;-81
2022/10/13 05:34:38;;;;;;;34.00;19.97;;;13.80;87.90;;;;;;5059456;28;20225;-81
2022/10/13 05:37:06;;;;;;;24.97;19.40;;;13.80;87.90;;;;;;5050629;28;20205;-81
2022/10/13 05:39:36;;;;;;;25.67;18.00;;;13.70;87.80;;;;;;5070311;28;20547;-81
2022/10/13 05:42:04;;;;;;;31.43;19.00;;;13.70;87.70;;;;;;5051256;28;20213;-81
2022/10/13 05:44:32;;;;;;;24.30;16.77;;;13.70;87.70;;;;;;5071732;28;20204;-81
2022/10/13 05:47:01;;;;;;;30.57;18.83;;;13.70;87.70;;;;;;5068266;28;20212;-80
2022/10/13 05:49:35;;;;;;;26.10;18.10;;;13.70;87.70;;;;;;5047801;28;20280;-81
2022/10/13 05:52:07;;;;;;;23.67;17.43;;;13.70;87.80;;;;;;5065132;28;20219;-79
2022/10/13 05:54:47;;;;;;;23.70;17.83;;;13.70;87.80;;;;;;5052823;28;20244;-81
2022/10/13 05:57:39;;;;;;;25.07;18.07;;;13.70;87.90;;;;;;5071910;28;20201;-83
2022/10/13 06:00:13;;;;;;;25.17;17.33;;;13.70;88.00;;;;;;5054996;28;20209;-81
2022/10/13 06:02:52;;;;;;;22.10;17.47;;;13.70;87.90;;;;;;5048400;28;20251;-80
2022/10/13 06:05:22;;;;;;;28.23;19.30;;;13.70;87.80;;;;;;5072676;28;20201;-81
2022/10/13 06:07:54;;;;;;;25.87;17.40;;;13.80;87.80;;;;;;5043969;28;20202;-81
2022/10/13 06:10:25;;;;;;;31.53;17.33;;;13.80;88.50;;;;;;5059452;28;20242;-81
2022/10/13 06:12:53;;;;;;;29.47;17.40;;;13.90;87.90;;;;;;5038437;28;20275;-80
2022/10/13 06:15:21;;;;;;;25.63;18.60;;;13.90;88.00;;;;;;5048418;28;20231;-80
2022/10/13 06:17:57;;;;;;;28.87;20.53;;;13.90;88.00;;;;;;5069695;28;20209;-80
2022/10/13 06:20:26;;;;;;;29.57;20.17;;;14.00;88.10;;;;;;5066810;28;20206;-81
2022/10/13 06:22:56;;;;;;;27.30;20.67;;;14.10;88.10;;;;;;5078480;28;20207;-81
2022/10/13 06:25:23;;;;;;;33.07;21.10;;;14.10;88.10;;;;;;5054816;28;20199;-82
2022/10/13 06:27:52;;;;;;;30.87;21.07;;;14.20;88.00;;;;;;5084931;28;20204;-80
2022/10/13 06:30:21;;;;;;;32.47;21.17;;;14.30;88.00;;;;;;5080065;28;20201;-81
2022/10/13 06:32:50;;;;;;;27.40;20.83;;;14.30;88.00;;;;;;5048946;28;20208;-81
2022/10/13 06:35:19;;;;;;;28.40;21.17;;;14.40;88.00;;;;;;5069256;28;20894;-82
2022/10/13 06:37:52;;;;;;;27.70;20.67;;;14.50;88.10;;;;;;5055576;28;20210;-82
2022/10/13 06:40:19;;;;;;;39.10;21.53;;;14.50;88.10;;;;;;5081383;28;20637;-81
2022/10/13 06:42:50;;;;;;;29.73;22.03;;;14.60;88.20;;;;;;5070552;28;20200;-81
2022/10/13 06:45:21;;;;;;;34.47;22.73;;;14.70;88.30;;;;;;5064323;28;20303;-81
2022/10/13 06:47:49;;;;;;;33.27;23.97;;;14.80;88.30;;;;;;5066425;28;20321;-82
2022/10/13 06:50:18;;;;;;;38.37;23.10;;;14.90;88.30;;;;;;5059131;28;20244;-82
2022/10/13 06:52:46;;;;;;;33.67;22.53;;;15.00;88.30;;;;;;5059469;28;20206;-82
2022/10/13 06:55:17;;;;;;;33.47;22.63;;;15.10;88.20;;;;;;5079804;28;20213;-81
2022/10/13 06:57:44;;;;;;;36.10;22.40;;;15.20;88.00;;;;;;5084454;28;20629;-82
2022/10/13 07:00:12;;;;;;;34.47;23.87;;;15.30;87.90;;;;;;5054150;28;20623;-82
2022/10/13 07:02:42;;;;;;;37.43;23.23;;;15.40;87.80;;;;;;5063575;28;20241;-82
2022/10/13 07:05:12;;;;;;;36.97;23.33;;;15.50;87.60;;;;;;5045121;28;20201;-82
2022/10/13 07:07:41;;;;;;;34.90;23.07;;;15.60;87.40;;;;;;5085148;28;20225;-82
2022/10/13 07:10:09;;;;;;;36.87;23.53;;;15.70;87.10;;;;;;5055465;28;20209;-82
2022/10/13 07:12:36;;;;;;;31.53;22.93;;;15.90;86.70;;;;;;5042741;28;20244;-82
2022/10/13 07:15:04;;;;;;;38.27;23.27;;;16.00;86.50;;;;;;5038655;28;20658;-82
2022/10/13 07:17:33;;;;;;;32.30;23.53;;;16.10;86.20;;;;;;5088243;28;20205;-81
2022/10/13 07:20:03;;;;;;;43.20;24.07;;;16.30;85.50;;;;;;5086249;28;20201;-82
2022/10/13 07:22:33;;;;;;;38.67;23.43;;;16.40;84.80;;;;;;5034744;28;20211;-82
2022/10/13 07:25:00;;;;;;;33.10;23.63;;;16.50;85.00;;;;;;5052158;28;20621;-82
2022/10/13 07:27:28;;;;;;;31.60;22.53;;;16.60;84.90;;;;;;5047635;28;20207;-81
2022/10/13 07:29:56;;;;;;;37.37;23.27;;;16.70;84.80;;;;;;5061075;28;20213;-82
2022/10/13 07:32:23;;;;;;;37.43;25.50;;;16.90;84.60;;;;;;5044669;28;20252;-81
2022/10/13 07:34:52;;;;;;;35.17;24.57;;;17.10;84.10;;;;;;5058391;28;20218;-82
2022/10/13 07:37:20;;;;;;;33.80;26.17;;;17.20;83.40;;;;;;5051596;28;20213;-81
2022/10/13 07:39:50;;;;;;;29.47;25.37;;;17.30;82.80;;;;;;5068430;28;20285;-82
2022/10/13 07:42:18;;;;;;;35.50;25.80;;;17.40;82.20;;;;;;5079525;28;20215;-82
2022/10/13 07:44:48;;;;;;;39.90;26.27;;;17.60;81.60;;;;;;5072546;28;20524;-82
2022/10/13 07:47:19;;;;;;;46.93;27.77;;;17.70;81.20;;;;;;5079474;28;20559;-81
2022/10/13 07:49:47;;;;;;;37.67;28.27;;;17.80;81.00;;;;;;5048800;28;20200;-82
2022/10/13 07:52:17;;;;;;;48.23;32.50;;;17.90;81.00;;;;;;5058513;28;20230;-81
2022/10/13 07:54:45;;;;;;;52.33;37.13;;;18.00;80.80;;;;;;5059203;28;20358;-81
2022/10/13 07:57:12;;;;;;;48.20;37.80;;;18.10;80.50;;;;;;5053847;28;20204;-81
2022/10/13 07:59:39;;;;;;;48.40;37.13;;;18.20;80.10;;;;;;5041145;28;20206;-80
2022/10/13 08:02:12;;;;;;;49.27;37.37;;;18.20;79.60;;;;;;5043895;28;20234;-81
2022/10/13 08:04:42;;;;;;;53.07;34.33;;;18.30;79.50;;;;;;5033088;28;20215;-82
2022/10/13 08:07:10;;;;;;;49.47;35.70;;;18.40;79.40;;;;;;5058813;28;20213;-81
2022/10/13 08:09:39;;;;;;;54.37;34.47;;;18.60;79.30;;;;;;5089348;28;20204;-81
2022/10/13 08:12:13;;;;;;;52.57;34.03;;;18.80;79.00;;;;;;5070246;28;20196;-81
2022/10/13 08:14:42;;;;;;;47.93;32.37;;;19.00;78.20;;;;;;5066143;28;20223;-81
2022/10/13 08:17:10;;;;;;;46.77;32.67;;;19.10;77.50;;;;;;5065127;28;20300;-80
2022/10/13 08:19:38;;;;;;;42.70;30.80;;;19.30;77.00;;;;;;5064686;28;20192;-81
2022/10/13 08:22:05;;;;;;;43.90;29.17;;;19.40;76.50;;;;;;5069623;28;20209;-81
2022/10/13 08:24:36;;;;;;;43.50;28.87;;;19.60;75.70;;;;;;5065203;28;20204;-81
2022/10/13 08:27:03;;;;;;;33.90;28.07;;;19.70;74.70;;;;;;5069452;28;20206;-81
2022/10/13 08:29:34;;;;;;;39.20;27.27;;;19.70;74.20;;;;;;5064065;28;20206;-81
2022/10/13 08:32:02;;;;;;;39.83;28.30;;;19.90;74.10;;;;;;5059396;28;20217;-80
2022/10/13 08:34:32;;;;;;;37.37;27.43;;;20.10;73.60;;;;;;5050518;28;20263;-80
2022/10/13 08:37:00;;;;;;;40.60;26.90;;;20.10;72.60;;;;;;5050193;28;20220;-81
2022/10/13 08:39:29;;;;;;;38.57;28.07;;;20.20;72.10;;;;;;5067897;28;20277;-81
2022/10/13 08:41:59;;;;;;;36.63;26.57;;;20.30;71.90;;;;;;5061146;28;20305;-81
2022/10/13 08:44:36;;;;;;;36.00;27.47;;;20.40;71.10;;;;;;5064041;28;20209;-80
2022/10/13 08:47:32;;;;;;;35.20;26.80;;;20.40;71.00;;;;;;5075131;28;20206;-81
2022/10/13 08:50:06;;;;;;;36.83;26.73;;;20.50;71.40;;;;;;5051445;28;20204;-81
2022/10/13 08:52:51;;;;;;;33.93;25.73;;;20.60;71.10;;;;;;5063842;28;20279;-80
2022/10/13 08:55:50;;;;;;;42.67;25.97;;;20.70;70.50;;;;;;5057551;28;20285;-80
2022/10/13 08:58:25;;;;;;;42.33;26.70;;;21.00;70.30;;;;;;5056330;28;20209;-81
2022/10/13 09:01:12;;;;;;;36.93;26.27;;;21.00;69.70;;;;;;5048613;28;20243;-81
2022/10/13 09:03:54;;;;;;;37.97;26.20;;;21.10;69.70;;;;;;5058399;28;20641;-80
2022/10/13 09:06:35;;;;;;;35.30;24.63;;;21.30;69.90;;;;;;5058593;28;20217;-81
2022/10/13 09:09:09;;;;;;;30.70;23.07;;;21.40;69.10;;;;;;5063516;28;20262;-81
2022/10/13 09:11:41;;;;;;;35.47;24.73;;;21.50;69.00;;;;;;5028535;28;20213;-80
2022/10/13 09:14:18;;;;;;;37.57;24.53;;;21.60;66.90;;;;;;5058104;28;20198;-80
2022/10/13 09:16:45;;;;;;;28.50;19.17;;;21.70;66.80;;;;;;5084921;28;20304;-80
2022/10/13 09:19:28;;;;;;;27.23;18.60;;;21.70;66.80;;;;;;5052832;28;20206;-80
2022/10/13 09:22:14;;;;;;;23.63;18.47;;;21.80;65.50;;;;;;5080272;28;20255;-80
2022/10/13 09:24:45;;;;;;;27.00;19.03;;;21.80;64.40;;;;;;5064594;28;20198;-81
2022/10/13 09:27:15;;;;;;;24.13;18.30;;;21.80;65.00;;;;;;5067125;28;20629;-80
2022/10/13 09:29:43;;;;;;;26.37;18.73;;;22.00;65.10;;;;;;5061598;28;20202;-80
2022/10/13 09:32:33;;;;;;;22.63;17.77;;;22.00;64.60;;;;;;5055433;28;20638;-81
2022/10/13 09:35:21;;;;;;;21.93;15.33;;;22.20;64.60;;;;;;5068156;28;20236;-81
2022/10/13 09:38:09;;;;;;;19.37;13.40;;;22.30;62.80;;;;;;5068525;28;20209;-81
2022/10/13 09:40:39;;;;;;;17.80;14.57;;;22.40;62.80;;;;;;5045346;28;20611;-81
2022/10/13 09:43:39;;;;;;;20.93;14.43;;;22.50;63.00;;;;;;5063962;28;20234;-81
2022/10/13 09:46:22;;;;;;;23.77;16.53;;;22.70;62.90;;;;;;5054665;28;20224;-81
2022/10/13 09:49:03;;;;;;;21.17;14.73;;;22.90;62.10;;;;;;5055813;28;20206;-79
2022/10/13 09:51:36;;;;;;;22.57;14.77;;;23.00;61.70;;;;;;5049555;28;20210;-80
2022/10/13 09:54:27;;;;;;;20.50;13.87;;;23.20;60.70;;;;;;5039279;28;20297;-81
2022/10/13 09:57:05;;;;;;;17.13;12.90;;;23.20;59.60;;;;;;5039092;28;20209;-80
2022/10/13 09:59:36;;;;;;;21.93;16.27;;;23.20;59.60;;;;;;5074134;28;20198;-80
2022/10/13 10:02:22;;;;;;;20.60;14.90;;;23.20;59.50;;;;;;5048988;28;20237;-80
2022/10/13 10:04:58;;;;;;;22.90;14.30;;;23.20;59.00;;;;;;5060742;28;20206;-80
2022/10/13 10:07:30;;;;;;;20.93;13.77;;;23.20;59.00;;;;;;5034265;28;20258;-80
2022/10/13 10:10:09;;;;;;;16.50;12.50;;;23.20;58.60;;;;;;5068189;28;20194;-80
2022/10/13 10:12:40;;;;;;;20.13;12.20;;;23.30;59.10;;;;;;5061029;28;20219;-80
2022/10/13 10:15:24;;;;;;;15.10;11.97;;;23.40;58.60;;;;;;5058269;28;20573;-80
2022/10/13 10:18:01;;;;;;;17.73;12.13;;;23.50;57.70;;;;;;5063859;28;20206;-80
2022/10/13 10:20:52;;;;;;;11.90;10.17;;;23.50;56.30;;;;;;5042610;28;20194;-82
2022/10/13 10:23:50;;;;;;;18.23;11.90;;;23.50;56.00;;;;;;5058489;28;20202;-80
2022/10/13 10:26:45;;;;;;;12.63;10.03;;;23.50;55.60;;;;;;5063006;28;20193;-79
2022/10/13 10:29:23;;;;;;;20.03;14.30;;;23.60;56.40;;;;;;5070148;28;20202;-79
2022/10/13 10:31:55;;;;;;;17.03;12.33;;;23.70;56.20;;;;;;5059759;28;20204;-80
2022/10/13 10:34:39;;;;;;;17.30;11.57;;;23.70;56.10;;;;;;5061919;28;20210;-81
2022/10/13 10:37:34;;;;;;;22.07;11.17;;;23.80;56.10;;;;;;5043227;28;20207;-80
2022/10/13 10:40:23;;;;;;;18.97;12.53;;;23.80;55.60;;;;;;5060456;28;20202;-81
2022/10/13 10:43:28;;;;;;;16.83;13.03;;;24.00;55.40;;;;;;5032991;28;20217;-80
2022/10/13 10:45:58;;;;;;;16.37;10.97;;;24.00;55.00;;;;;;5026993;28;20207;-80
2022/10/13 10:48:38;;;;;;;19.90;12.43;;;24.00;54.50;;;;;;5074090;28;20201;-79
2022/10/13 10:51:09;;;;;;;19.37;11.17;;;24.10;54.70;;;;;;5051388;28;20222;-80
2022/10/13 10:54:12;;;;;;;15.60;10.60;;;24.20;55.10;;;;;;5046215;28;20260;-80
2022/10/13 10:56:54;;;;;;;17.47;11.37;;;24.30;55.20;;;;;;5041689;28;20304;-79
2022/10/13 10:59:45;;;;;;;12.63;10.97;;;24.50;55.10;;;;;;5068781;28;20233;-81
2022/10/13 11:02:50;;;;;;;16.40;11.10;;;24.70;54.40;;;;;;5061212;28;20252;-80
2022/10/13 11:05:20;;;;;;;12.90;10.37;;;24.80;53.60;;;;;;5030983;28;20214;-79
2022/10/13 11:07:51;;;;;;;16.43;10.20;;;25.00;53.10;;;;;;5066132;28;20202;-80
2022/10/13 11:10:21;;;;;;;12.50;9.83;;;25.00;52.00;;;;;;5049992;28;20224;-80
2022/10/13 11:12:51;;;;;;;13.47;10.17;;;25.20;51.90;;;;;;5035821;28;20593;-79
2022/10/13 11:15:39;;;;;;;12.93;10.20;;;25.20;51.70;;;;;;5073424;28;20207;-80
2022/10/13 11:18:46;;;;;;;11.47;9.70;;;25.30;51.60;;;;;;5062375;28;20257;-80
2022/10/13 11:21:14;;;;;;;17.60;11.07;;;25.40;51.60;;;;;;5058741;28;20221;-79
2022/10/13 11:23:47;;;;;;;15.17;9.40;;;25.50;51.50;;;;;;5063192;28;20202;-80
2022/10/13 11:26:26;;;;;;;13.70;9.90;;;25.60;50.70;;;;;;5049943;28;20212;-81
2022/10/13 11:28:54;;;;;;;14.40;9.90;;;25.70;50.80;;;;;;5056001;28;20240;-79
2022/10/13 11:31:46;;;;;;;16.73;10.67;;;25.70;50.20;;;;;;5050056;28;20305;-80
2022/10/13 11:34:31;;;;;;;16.33;10.33;;;25.70;50.00;;;;;;5058457;28;20206;-80
2022/10/13 11:37:00;;;;;;;13.87;10.40;;;25.70;48.70;;;;;;5034054;28;20222;-81
2022/10/13 11:39:39;;;;;;;19.83;10.90;;;25.70;47.50;;;;;;5058271;28;20203;-79
2022/10/13 11:42:32;;;;;;;13.13;10.30;;;25.50;47.60;;;;;;5070929;28;20218;-79
2022/10/13 11:45:22;;;;;;;15.80;10.13;;;25.40;48.20;;;;;;5057246;28;20209;-80
2022/10/13 11:48:03;;;;;;;10.93;9.63;;;25.30;49.20;;;;;;5044215;28;20203;-79
2022/10/13 11:51:05;;;;;;;17.70;9.70;;;25.30;48.80;;;;;;5054997;28;20220;-81
2022/10/13 11:53:53;;;;;;;14.57;10.83;;;25.20;48.90;;;;;;5064912;28;20544;-81
2022/10/13 11:56:32;;;;;;;15.43;10.10;;;25.20;47.90;;;;;;5054224;28;20229;-80
2022/10/13 11:59:37;;;;;;;11.53;9.60;;;25.20;48.40;;;;;;5050563;28;20204;-78
2022/10/13 12:02:12;;;;;;;15.17;9.03;;;25.10;49.00;;;;;;5022994;28;20226;-80
2022/10/13 12:04:58;;;;;;;12.00;9.10;;;25.10;47.80;;;;;;5042428;28;20236;-80
2022/10/13 12:07:36;;;;;;;14.17;9.60;;;25.10;47.90;;;;;;5034214;28;20558;-80
2022/10/13 12:10:06;;;;;;;11.00;8.33;;;25.10;48.60;;;;;;5060782;28;20214;-79
2022/10/13 12:12:44;;;;;;;16.77;7.73;;;25.20;48.80;;;;;;5059387;28;20196;-80
2022/10/13 12:15:43;;;;;;;11.07;7.87;;;25.10;48.90;;;;;;5049749;28;20208;-81
2022/10/13 12:18:27;;;;;;;10.13;7.17;;;25.20;48.30;;;;;;5070909;28;20216;-79
2022/10/13 12:20:57;;;;;;;8.33;7.43;;;25.00;48.30;;;;;;5071913;28;20198;-80
2022/10/13 12:23:28;;;;;;;11.67;7.23;;;25.00;48.20;;;;;;5071067;28;20205;-80
2022/10/13 12:26:01;;;;;;;11.50;7.80;;;25.00;47.80;;;;;;5070581;28;20216;-79
2022/10/13 12:28:53;;;;;;;10.53;8.47;;;24.90;48.10;;;;;;5064222;28;20228;-80
2022/10/13 12:31:29;;;;;;;10.50;7.27;;;24.80;48.50;;;;;;5078407;28;20206;-80
2022/10/13 12:34:01;;;;;;;9.20;6.70;;;24.70;49.30;;;;;;5071679;28;20198;-80
2022/10/13 12:36:34;;;;;;;11.67;7.00;;;24.70;49.80;;;;;;5048447;28;20297;-80
2022/10/13 12:39:12;;;;;;;10.33;7.60;;;24.60;50.10;;;;;;5056001;28;20266;-79
2022/10/13 12:41:45;;;;;;;10.40;7.90;;;24.80;50.10;;;;;;5045661;28;20215;-79
2022/10/13 12:44:22;;;;;;;10.00;7.40;;;24.90;49.70;;;;;;5053400;28;20226;-80
2022/10/13 12:46:54;;;;;;;12.77;8.43;;;25.10;49.10;;;;;;5052030;28;20222;-79
2022/10/13 12:49:35;;;;;;;12.27;8.17;;;25.30;48.80;;;;;;5043116;28;20206;-79
2022/10/13 12:52:08;;;;;;;9.33;7.57;;;25.40;48.30;;;;;;5043345;28;20219;-78
2022/10/13 12:54:46;;;;;;;11.07;7.37;;;25.50;48.20;;;;;;5044437;28;20867;-79
2022/10/13 12:57:18;;;;;;;10.50;7.93;;;25.60;48.90;;;;;;5063496;28;20223;-79
2022/10/13 12:59:46;;;;;;;12.47;9.23;;;25.70;47.20;;;;;;5064462;28;20197;-78
2022/10/13 13:02:28;;;;;;;11.73;8.00;;;25.70;46.60;;;;;;5084512;28;20295;-79
2022/10/13 13:04:56;;;;;;;10.03;7.83;;;25.60;47.10;;;;;;5051296;28;20212;-79